Time;durP1;ratioP1;P1;durP2;ratioP2;P2;SDS_P1;SDS_P2;PMS_P1;PMS_P2;Temp;Humidity;BMP_temperature;BMP_pressure;BME280_temperature;BME280_humidity;BME280_pressure;Samples;Min_cycle;Max_cycle;Signal;HPM_P1;HPM_P2
2021/12/27 00:00:23;;;;;;;40.65;26.60;;;;;;;3.12;100.00;100158.31;5085890;28;20016;-81
2021/12/27 00:02:52;;;;;;;43.30;26.85;;;;;;;3.17;100.00;100159.81;5089634;28;20023;-80
2021/12/27 00:05:17;;;;;;;41.40;26.58;;;;;;;3.18;100.00;100161.50;5078724;28;20024;-86
2021/12/27 00:07:47;;;;;;;40.35;26.83;;;;;;;3.18;100.00;100151.09;5088920;28;20028;-81
2021/12/27 00:10:13;;;;;;;42.78;28.23;;;;;;;3.18;100.00;100151.09;5089103;28;20020;-85
2021/12/27 00:12:39;;;;;;;43.63;28.40;;;;;;;3.18;100.00;100151.09;5087992;28;20776;-80
2021/12/27 00:15:04;;;;;;;40.33;27.23;;;;;;;3.19;100.00;100153.63;5087901;28;20031;-85
2021/12/27 00:17:30;;;;;;;39.83;27.45;;;;;;;3.20;100.00;100154.44;5086487;28;20027;-86
2021/12/27 00:19:56;;;;;;;40.83;27.63;;;;;;;3.22;100.00;100152.63;5075194;28;20035;-85
2021/12/27 00:22:22;;;;;;;37.15;25.25;;;;;;;3.19;100.00;100147.56;5085227;28;20068;-85
2021/12/27 00:24:48;;;;;;;38.90;26.20;;;;;;;3.22;100.00;100148.28;5108697;28;20428;-86
2021/12/27 00:27:15;;;;;;;37.30;26.13;;;;;;;3.20;100.00;100147.50;5090565;28;20106;-86
2021/12/27 00:29:41;;;;;;;41.45;26.27;;;;;;;3.22;100.00;100144.84;5091385;28;20035;-86
2021/12/27 00:32:07;;;;;;;39.22;25.90;;;;;;;3.22;100.00;100137.88;5089316;28;20028;-86
2021/12/27 00:34:32;;;;;;;36.70;25.90;;;;;;;3.25;100.00;100142.06;5104795;28;20369;-85
2021/12/27 00:36:57;;;;;;;38.03;25.65;;;;;;;3.25;100.00;100129.06;5091368;28;20149;-86
2021/12/27 00:39:23;;;;;;;38.22;26.42;;;;;;;3.27;100.00;100132.41;5108246;28;20023;-86
2021/12/27 00:41:48;;;;;;;39.40;26.70;;;;;;;3.26;100.00;100128.97;5090795;28;20118;-86
2021/12/27 00:44:14;;;;;;;37.53;26.17;;;;;;;3.26;100.00;100109.94;5109348;28;20094;-86
2021/12/27 00:46:40;;;;;;;40.35;26.05;;;;;;;3.27;100.00;100115.06;5090630;28;20176;-86
2021/12/27 00:49:05;;;;;;;36.40;25.27;;;;;;;3.29;100.00;100110.63;5091895;28;20606;-87
2021/12/27 00:51:30;;;;;;;37.30;26.52;;;;;;;3.29;100.00;100107.19;5086144;28;20246;-86
2021/12/27 00:53:56;;;;;;;37.40;26.02;;;;;;;3.32;100.00;100104.41;5085990;28;20502;-87
2021/12/27 00:56:21;;;;;;;40.42;27.42;;;;;;;3.30;100.00;100104.50;5108964;28;20012;-86
2021/12/27 00:58:47;;;;;;;38.35;26.13;;;;;;;3.28;100.00;100100.31;5083410;28;20106;-86
2021/12/27 01:01:12;;;;;;;36.22;25.02;;;;;;;3.30;100.00;100103.66;5094289;28;20475;-86
2021/12/27 01:03:37;;;;;;;39.42;25.52;;;;;;;3.31;100.00;100095.78;5080753;28;20024;-86
2021/12/27 01:06:03;;;;;;;37.95;25.52;;;;;;;3.31;100.00;100094.94;5098197;28;20020;-86
2021/12/27 01:08:28;;;;;;;36.53;25.02;;;;;;;3.32;100.00;100096.59;5109508;27;20043;-86
2021/12/27 01:11:24;;;;;;;37.85;25.23;;;;;;;3.32;100.00;100097.44;5096899;28;20119;-86
2021/12/27 01:14:08;;;;;;;39.53;25.98;;;;;;;3.34;100.00;100103.41;5096682;28;20027;-86
2021/12/27 01:16:33;;;;;;;37.00;25.38;;;;;;;3.32;100.00;100094.00;5115552;28;20032;-87
2021/12/27 01:18:59;;;;;;;38.78;26.00;;;;;;;3.34;100.00;100099.97;5107194;28;20451;-87
2021/12/27 01:21:25;;;;;;;38.70;26.08;;;;;;;3.29;100.00;100088.97;5114271;28;20122;-86
2021/12/27 01:23:52;;;;;;;40.55;26.65;;;;;;;3.37;100.00;100090.22;5115218;28;20047;-86
2021/12/27 01:26:17;;;;;;;39.00;26.20;;;;;;;3.35;100.00;100092.06;5112647;28;20127;-86
2021/12/27 01:28:43;;;;;;;39.65;26.80;;;;;;;3.39;100.00;100092.72;5090018;28;20031;-87
2021/12/27 01:31:09;;;;;;;37.72;26.13;;;;;;;3.39;100.00;100096.16;5115352;28;20055;-86
2021/12/27 01:33:35;;;;;;;42.03;25.75;;;;;;;3.37;100.00;100085.03;5096490;28;20115;-86
2021/12/27 01:36:02;;;;;;;39.30;26.35;;;;;;;3.42;100.00;100100.34;5114752;28;20034;-86
2021/12/27 01:38:27;;;;;;;38.40;26.30;;;;;;;3.41;100.00;100096.91;5114372;28;20482;-86
2021/12/27 01:40:56;;;;;;;43.65;26.63;;;;;;;3.42;100.00;100090.78;5113880;28;20031;-86
2021/12/27 01:43:25;;;;;;;44.13;27.95;;;;;;;3.42;100.00;100092.56;5106303;28;20024;-87
2021/12/27 01:45:56;;;;;;;40.08;26.50;;;;;;;3.45;100.00;100092.38;5112523;28;20031;-86
2021/12/27 01:48:25;;;;;;;39.93;26.30;;;;;;;3.48;100.00;100092.22;5096798;28;20487;-86
2021/12/27 01:50:54;;;;;;;44.10;28.17;;;;;;;3.49;100.00;100083.47;5115049;28;20102;-87
2021/12/27 01:53:25;;;;;;;44.10;27.98;;;;;;;3.47;100.00;100080.13;5114390;27;20027;-86
2021/12/27 01:55:52;;;;;;;41.80;27.00;;;;;;;3.50;100.00;100079.13;5115245;27;20037;-87
2021/12/27 01:58:18;;;;;;;46.65;29.02;;;;;;;3.50;100.00;100073.91;5107256;28;20031;-87
2021/12/27 02:00:46;;;;;;;44.83;28.60;;;;;;;3.46;100.00;100074.09;5113118;28;20147;-86
2021/12/27 02:03:18;;;;;;;44.33;27.85;;;;;;;3.53;100.00;100077.19;5108039;28;20043;-86
2021/12/27 02:05:46;;;;;;;46.77;28.07;;;;;;;3.50;100.00;100069.56;5115310;28;20032;-87
2021/12/27 02:08:15;;;;;;;43.65;28.02;;;;;;;3.54;100.00;100065.00;5115874;28;20285;-86
2021/12/27 02:10:41;;;;;;;41.50;27.38;;;;;;;3.54;100.00;100060.63;5114926;28;20031;-87
2021/12/27 02:13:08;;;;;;;42.85;27.42;;;;;;;3.58;100.00;100063.91;5094311;28;20072;-87
2021/12/27 02:15:33;;;;;;;42.97;28.42;;;;;;;3.60;100.00;100070.72;5085471;28;20027;-87
2021/12/27 02:17:59;;;;;;;41.95;27.85;;;;;;;3.60;100.00;100070.72;5086758;28;20433;-82
2021/12/27 02:20:30;;;;;;;40.45;26.27;;;;;;;3.61;100.00;100069.78;5111535;28;20019;-81
2021/12/27 02:23:01;;;;;;;42.78;27.13;;;;;;;3.58;100.00;100067.34;5090350;28;20050;-81
2021/12/27 02:25:29;;;;;;;40.30;26.67;;;;;;;3.61;100.00;100072.41;5074703;28;20024;-81
2021/12/27 02:27:54;;;;;;;40.42;26.83;;;;;;;3.62;100.00;100068.03;5091993;28;20024;-81
2021/12/27 02:30:22;;;;;;;41.53;27.23;;;;;;;3.61;100.00;100072.41;5088813;28;20729;-82
2021/12/27 02:33:00;;;;;;;42.13;27.45;;;;;;;3.63;100.00;100064.50;5081439;28;20076;-81
2021/12/27 02:35:37;;;;;;;43.55;27.20;;;;;;;3.58;100.00;100056.94;5086767;28;20076;-82
2021/12/27 02:38:04;;;;;;;43.65;27.10;;;;;;;3.62;100.00;100068.03;5089583;28;20559;-86
2021/12/27 02:40:31;;;;;;;44.42;27.77;;;;;;;3.60;100.00;100062.06;5090203;28;20020;-87
2021/12/27 02:43:03;;;;;;;44.22;28.02;;;;;;;3.66;100.00;100078.16;5091320;28;20027;-87
2021/12/27 02:45:31;;;;;;;40.17;26.23;;;;;;;3.63;100.00;100073.16;5088515;28;20024;-82
2021/12/27 02:47:57;;;;;;;42.75;26.65;;;;;;;3.65;100.00;100062.66;5090926;28;20024;-88
2021/12/27 02:50:24;;;;;;;43.47;27.83;;;;;;;3.65;100.00;100063.47;5090634;28;20055;-87
2021/12/27 02:52:50;;;;;;;43.40;27.50;;;;;;;3.68;100.00;100052.91;5079186;28;20119;-87
2021/12/27 02:55:17;;;;;;;42.92;26.70;;;;;;;3.70;100.00;100051.03;5089523;28;20521;-87
2021/12/27 02:57:44;;;;;;;45.20;27.65;;;;;;;3.69;100.00;100048.53;5077919;28;20111;-87
2021/12/27 03:00:32;;;;;;;43.78;26.88;;;;;;;3.73;100.00;100056.06;5087256;28;20027;-87
2021/12/27 03:02:58;;;;;;;45.28;27.88;;;;;;;3.71;100.00;100060.53;5082270;28;20021;-88
2021/12/27 03:05:26;;;;;;;45.00;29.20;;;;;;;3.70;100.00;100061.44;5078852;28;20032;-87
2021/12/27 03:07:52;;;;;;;45.35;27.63;;;;;;;3.69;100.00;100044.16;5088202;28;20051;-88
2021/12/27 03:10:21;;;;;;;45.20;26.88;;;;;;;3.73;100.00;100047.44;5084516;28;20383;-87
2021/12/27 03:12:48;;;;;;;44.50;28.13;;;;;;;3.73;100.00;100040.47;5088207;28;20118;-87
2021/12/27 03:15:15;;;;;;;43.83;27.33;;;;;;;3.75;100.00;100043.81;5087516;28;20023;-88
2021/12/27 03:17:43;;;;;;;47.45;28.95;;;;;;;3.75;100.00;100041.22;5077733;28;20074;-82
2021/12/27 03:20:09;;;;;;;46.78;28.38;;;;;;;3.75;100.00;100033.41;5086491;28;20087;-82
2021/12/27 03:22:37;;;;;;;43.47;27.85;;;;;;;3.77;100.00;100034.16;5082953;28;20032;-87
2021/12/27 03:25:06;;;;;;;42.45;27.05;;;;;;;3.77;100.00;100034.16;5089001;28;20503;-88
2021/12/27 03:27:31;;;;;;;45.60;29.05;;;;;;;3.78;100.00;100041.03;5106520;28;20413;-88
2021/12/27 03:29:56;;;;;;;45.50;27.90;;;;;;;3.80;100.00;100037.50;5110679;28;20144;-88
2021/12/27 03:32:23;;;;;;;44.70;27.05;;;;;;;3.80;100.00;100035.72;5110447;28;20100;-87
2021/12/27 03:34:58;;;;;;;47.97;27.92;;;;;;;3.83;100.00;100045.94;5097895;28;20020;-87
2021/12/27 03:37:24;;;;;;;47.47;28.83;;;;;;;3.83;100.00;100038.16;5101001;28;20028;-82
2021/12/27 03:39:50;;;;;;;40.90;26.90;;;;;;;3.80;100.00;100037.50;5104480;28;20019;-82
2021/12/27 03:42:16;;;;;;;42.90;27.35;;;;;;;3.85;100.00;100036.28;5110328;28;20031;-88
2021/12/27 03:44:44;;;;;;;45.03;26.60;;;;;;;3.84;100.00;100031.19;5092153;28;20102;-88
2021/12/27 03:47:10;;;;;;;42.92;26.73;;;;;;;3.85;100.00;100032.84;5092756;28;20030;-88
2021/12/27 03:49:35;;;;;;;45.38;27.48;;;;;;;3.89;100.00;100029.97;5089522;28;20027;-88
2021/12/27 03:52:00;;;;;;;42.08;25.90;;;;;;;3.91;100.00;100016.88;5104982;28;20107;-88
2021/12/27 03:54:26;;;;;;;43.17;27.50;;;;;;;3.90;100.00;100017.78;5108579;28;20063;-87
2021/12/27 03:56:51;;;;;;;43.05;26.40;;;;;;;3.86;100.00;100008.50;5083960;28;20027;-88
2021/12/27 04:00:14;;;;;;;42.13;25.42;;;;;;;3.89;100.00;100003.13;5103266;28;20024;-87
2021/12/27 04:02:08;;;;;;;40.10;26.63;;;;;;;3.93;100.00;100005.44;5102201;28;20100;-82
2021/12/27 04:04:34;;;;;;;38.72;25.55;;;;;;;3.92;100.00;99992.53;5083504;28;20236;-87
2021/12/27 04:07:00;;;;;;;41.85;26.58;;;;;;;3.96;100.00;99996.59;5111966;28;20023;-87
2021/12/27 04:09:26;;;;;;;42.60;26.70;;;;;;;3.96;100.00;100004.41;5102259;28;20084;-88
2021/12/27 04:11:51;;;;;;;39.53;25.80;;;;;;;3.96;100.00;99992.25;5109197;28;20031;-88
2021/12/27 04:14:17;;;;;;;39.58;25.60;;;;;;;3.99;100.00;99993.81;5104806;28;20107;-88
2021/12/27 04:16:42;;;;;;;42.35;25.90;;;;;;;3.98;100.00;99992.97;5092024;28;20484;-87
2021/12/27 04:19:07;;;;;;;41.00;25.30;;;;;;;4.00;100.00;99995.50;5091694;28;20106;-87
2021/12/27 04:21:33;;;;;;;42.00;25.42;;;;;;;4.01;100.00;99992.00;5108797;28;20547;-88
2021/12/27 04:23:58;;;;;;;39.40;25.52;;;;;;;4.04;100.00;99994.41;5108681;28;20104;-88
2021/12/27 04:26:23;;;;;;;41.15;25.65;;;;;;;4.04;100.00;99986.59;5108479;28;20110;-89
2021/12/27 04:28:50;;;;;;;40.67;26.80;;;;;;;4.06;100.00;99979.53;5105764;28;20054;-88
2021/12/27 04:31:16;;;;;;;43.58;25.92;;;;;;;4.06;100.00;99975.16;5108247;28;20098;-88
2021/12/27 04:33:45;;;;;;;39.85;25.55;;;;;;;4.07;100.00;99981.19;5092035;28;20076;-87
2021/12/27 04:36:10;;;;;;;41.03;26.90;;;;;;;4.04;100.00;99965.78;5087849;28;20028;-87
2021/12/27 04:38:37;;;;;;;42.75;27.00;;;;;;;4.09;100.00;99974.13;5102602;28;20387;-87
2021/12/27 04:41:05;;;;;;;40.30;26.05;;;;;;;4.10;100.00;99975.81;5100725;28;20089;-87
2021/12/27 04:43:31;;;;;;;41.15;26.20;;;;;;;4.12;100.00;99975.72;5109174;28;20080;-87
2021/12/27 04:45:57;;;;;;;39.55;26.42;;;;;;;4.10;100.00;99970.59;5099528;28;20947;-87
2021/12/27 04:48:25;;;;;;;43.83;26.05;;;;;;;4.14;100.00;99966.03;5102246;28;20089;-87
2021/12/27 04:50:51;;;;;;;39.88;25.98;;;;;;;4.14;100.00;99963.44;5091706;28;20035;-87
2021/12/27 04:53:17;;;;;;;39.78;26.92;;;;;;;4.14;100.00;99958.22;5108261;28;20024;-87
2021/12/27 04:55:44;;;;;;;43.50;27.25;;;;;;;4.16;100.00;99970.22;5101555;28;20027;-88
2021/12/27 04:58:10;;;;;;;41.75;26.33;;;;;;;4.15;100.00;99955.53;5075700;28;20020;-88
2021/12/27 05:00:37;;;;;;;41.90;26.33;;;;;;;4.18;100.00;99960.53;5098443;28;20122;-87
2021/12/27 05:03:03;;;;;;;38.13;26.63;;;;;;;4.13;100.00;99954.78;5096252;28;20439;-88
2021/12/27 05:05:31;;;;;;;38.95;25.58;;;;;;;4.21;100.00;99962.13;5080807;28;20024;-87
2021/12/27 05:07:57;;;;;;;43.63;26.75;;;;;;;4.21;100.00;99959.53;5107743;28;20023;-87
2021/12/27 05:10:24;;;;;;;39.20;25.92;;;;;;;4.20;100.00;99957.84;5108177;28;20035;-88
2021/12/27 05:12:49;;;;;;;37.47;24.75;;;;;;;4.23;100.00;99961.09;5109747;28;20024;-88
2021/12/27 05:15:15;;;;;;;44.38;26.98;;;;;;;4.26;100.00;99968.72;5082339;28;20049;-88
2021/12/27 05:17:40;;;;;;;37.85;25.00;;;;;;;4.23;100.00;99961.09;5081203;28;20051;-87
2021/12/27 05:20:08;;;;;;;39.13;25.48;;;;;;;4.24;100.00;99962.75;5093480;28;20028;-88
2021/12/27 05:22:34;;;;;;;38.95;24.75;;;;;;;4.23;100.00;99958.50;5105196;28;20089;-87
2021/12/27 05:25:00;;;;;;;38.85;25.42;;;;;;;4.26;100.00;99960.06;5108539;28;20031;-88
2021/12/27 05:27:26;;;;;;;47.92;27.80;;;;;;;4.27;100.00;99957.38;5108423;28;20031;-88
2021/12/27 05:29:51;;;;;;;43.58;27.45;;;;;;;4.23;100.00;99944.63;5100519;28;20110;-88
2021/12/27 05:32:17;;;;;;;43.38;27.10;;;;;;;4.30;100.00;99954.56;5109110;28;20054;-88
2021/12/27 05:34:45;;;;;;;39.88;25.73;;;;;;;4.26;100.00;99945.28;5108033;28;20030;-87
2021/12/27 05:37:10;;;;;;;42.50;26.63;;;;;;;4.31;100.00;99942.38;5100270;28;20035;-88
2021/12/27 05:39:36;;;;;;;42.92;26.13;;;;;;;4.30;100.00;99935.50;5108471;28;20027;-88
2021/12/27 05:42:02;;;;;;;39.00;24.75;;;;;;;4.31;100.00;99940.63;5107272;28;20537;-88
2021/12/27 05:44:29;;;;;;;40.90;24.90;;;;;;;4.35;100.00;99939.50;5100722;28;20035;-88
2021/12/27 05:46:54;;;;;;;40.42;25.05;;;;;;;4.33;100.00;99938.75;5091689;28;20110;-88
2021/12/27 05:49:21;;;;;;;39.80;25.30;;;;;;;4.36;100.00;99935.13;5091974;28;20035;-87
2021/12/27 05:51:46;;;;;;;40.83;25.52;;;;;;;4.36;100.00;99940.31;5103630;28;20509;-87
2021/12/27 05:54:13;;;;;;;41.35;25.20;;;;;;;4.38;100.00;99943.66;5105062;28;20020;-87
2021/12/27 05:56:39;;;;;;;40.70;25.40;;;;;;;4.40;100.00;99952.22;5093363;28;20394;-88
2021/12/27 05:59:04;;;;;;;39.45;25.42;;;;;;;4.42;100.00;99949.53;5094808;28;20015;-87
2021/12/27 06:01:29;;;;;;;38.50;25.38;;;;;;;4.46;100.00;99951.84;5111214;28;20034;-87
2021/12/27 06:03:57;;;;;;;43.25;26.35;;;;;;;4.49;100.00;99956.03;5112180;28;20016;-87
2021/12/27 06:06:24;;;;;;;43.20;26.83;;;;;;;4.50;100.00;99947.28;5093673;28;20032;-87
2021/12/27 06:08:49;;;;;;;44.65;25.20;;;;;;;4.45;100.00;99944.16;5094794;28;20032;-87
2021/12/27 06:11:14;;;;;;;40.05;25.45;;;;;;;4.50;100.00;99942.91;5105880;28;20033;-88
2021/12/27 06:13:40;;;;;;;38.78;24.85;;;;;;;4.47;100.00;99935.31;5109895;28;20114;-88
2021/12/27 06:16:05;;;;;;;43.90;26.80;;;;;;;4.52;100.00;99941.06;5087947;28;20030;-88
2021/12/27 06:18:30;;;;;;;40.85;25.83;;;;;;;4.54;100.00;99943.56;5084694;28;20377;-87
2021/12/27 06:20:56;;;;;;;39.40;24.33;;;;;;;4.54;100.00;99944.38;5094059;28;20531;-87
2021/12/27 06:23:21;;;;;;;39.78;25.17;;;;;;;4.58;100.00;99947.63;5092809;28;20039;-87
2021/12/27 06:25:46;;;;;;;38.17;24.13;;;;;;;4.56;100.00;99941.69;5112257;28;20391;-87
2021/12/27 06:28:12;;;;;;;38.33;24.60;;;;;;;4.60;100.00;99948.38;5083119;28;20023;-81
2021/12/27 06:30:38;;;;;;;38.45;24.85;;;;;;;4.58;100.00;99942.44;5107498;28;20165;-87
2021/12/27 06:33:03;;;;;;;40.03;24.77;;;;;;;4.61;100.00;99934.41;5110681;28;20046;-87
2021/12/27 06:35:28;;;;;;;39.92;24.52;;;;;;;4.61;100.00;99935.25;5110921;28;20081;-87
2021/12/27 06:37:54;;;;;;;37.92;23.58;;;;;;;4.64;100.00;99935.03;5083825;28;20400;-87
2021/12/27 06:40:22;;;;;;;39.53;25.05;;;;;;;4.65;100.00;99926.28;5111576;28;20023;-86
2021/12/27 06:42:47;;;;;;;41.47;25.08;;;;;;;4.68;100.00;99935.69;5110420;28;20028;-87
2021/12/27 06:45:13;;;;;;;39.85;24.52;;;;;;;4.67;100.00;99932.25;5100702;28;20027;-87
2021/12/27 06:47:38;;;;;;;40.67;24.42;;;;;;;4.70;100.00;99928.59;5110982;28;20035;-87
2021/12/27 06:50:06;;;;;;;42.72;24.48;;;;;;;4.72;100.00;99922.34;5111260;28;20119;-87
2021/12/27 06:52:31;;;;;;;36.30;23.70;;;;;;;4.72;100.00;99929.34;5083152;28;20031;-87
2021/12/27 06:54:57;;;;;;;43.17;24.48;;;;;;;4.69;100.00;99911.31;5110176;28;20030;-87
2021/12/27 06:57:22;;;;;;;42.63;25.33;;;;;;;4.75;100.00;99920.47;5094973;28;20028;-87
2021/12/27 06:59:48;;;;;;;40.45;24.70;;;;;;;4.78;100.00;99915.06;5109708;28;20110;-88
2021/12/27 07:02:14;;;;;;;39.13;24.73;;;;;;;4.77;100.00;99914.25;5103533;28;20063;-87
2021/12/27 07:04:39;;;;;;;38.10;24.30;;;;;;;4.81;100.00;99910.53;5105469;28;20028;-87
2021/12/27 07:07:04;;;;;;;41.88;24.45;;;;;;;4.80;100.00;99903.63;5091434;28;20547;-87
2021/12/27 07:09:30;;;;;;;38.47;23.58;;;;;;;4.85;100.00;99905.94;5102159;28;20043;-87
2021/12/27 07:11:56;;;;;;;42.55;23.85;;;;;;;4.82;100.00;99901.78;5110912;28;20031;-87
2021/12/27 07:14:21;;;;;;;40.40;24.17;;;;;;;4.84;100.00;99905.13;5077797;28;20506;-87
2021/12/27 07:16:46;;;;;;;38.58;23.38;;;;;;;4.84;100.00;99909.50;5110886;28;20035;-88
2021/12/27 07:19:15;;;;;;;39.15;23.85;;;;;;;4.85;100.00;99906.78;5087850;28;20016;-87
2021/12/27 07:21:41;;;;;;;41.65;23.92;;;;;;;4.88;100.00;99908.34;5109350;28;20031;-87
2021/12/27 07:24:07;;;;;;;41.88;23.88;;;;;;;4.88;100.00;99895.31;5091885;28;20441;-81
2021/12/27 07:26:32;;;;;;;40.35;22.75;;;;;;;4.86;100.00;99887.59;5110017;28;20035;-81
2021/12/27 07:28:58;;;;;;;39.30;22.83;;;;;;;4.89;100.00;99891.78;5111365;28;20034;-88
2021/12/27 07:31:23;;;;;;;39.42;22.63;;;;;;;4.89;100.00;99903.03;5102198;28;20024;-87
2021/12/27 07:33:48;;;;;;;35.28;22.38;;;;;;;4.91;100.00;99905.53;5110899;28;20157;-87
2021/12/27 07:36:14;;;;;;;37.03;22.77;;;;;;;4.91;100.00;99901.16;5105575;28;20027;-87
2021/12/27 07:38:42;;;;;;;37.50;23.60;;;;;;;4.92;100.00;99902.84;5092482;28;20529;-87
2021/12/27 07:41:10;;;;;;;36.70;23.02;;;;;;;4.91;100.00;99901.16;5092861;28;20359;-87
2021/12/27 07:43:36;;;;;;;40.13;22.70;;;;;;;4.92;100.00;99902.84;5110688;28;21217;-87
2021/12/27 07:46:02;;;;;;;36.97;21.98;;;;;;;4.92;100.00;99908.03;5093060;28;20032;-87
2021/12/27 07:48:27;;;;;;;33.55;21.92;;;;;;;4.90;100.00;99904.72;5090732;28;20118;-81
2021/12/27 07:50:53;;;;;;;33.72;21.88;;;;;;;4.93;100.00;99911.50;5110084;28;20460;-81
2021/12/27 07:53:18;;;;;;;36.35;22.13;;;;;;;4.94;100.00;99906.16;5090757;28;20023;-87
2021/12/27 07:55:43;;;;;;;35.83;22.52;;;;;;;4.95;100.00;99907.84;5109543;28;20055;-87
2021/12/27 07:58:09;;;;;;;34.30;21.23;;;;;;;4.95;100.00;99905.25;5110309;28;20468;-87
2021/12/27 08:00:34;;;;;;;32.70;22.00;;;;;;;4.97;100.00;99908.56;5101222;28;20043;-81
2021/12/27 08:02:59;;;;;;;34.97;21.85;;;;;;;4.89;100.00;99892.63;5077864;28;20020;-81
2021/12/27 08:05:25;;;;;;;35.25;21.05;;;;;;;4.97;100.00;99908.56;5087263;28;20065;-87
2021/12/27 08:07:50;;;;;;;37.42;20.95;;;;;;;4.92;100.00;99897.63;5109653;28;20019;-87
2021/12/27 08:10:16;;;;;;;37.00;23.13;;;;;;;4.94;100.00;99906.16;5085882;28;20433;-87
2021/12/27 08:12:44;;;;;;;38.72;23.63;;;;;;;4.94;100.00;99906.16;5090149;28;20034;-87
2021/12/27 08:15:14;;;;;;;38.88;22.85;;;;;;;4.99;100.00;99916.28;5108219;28;20034;-87
2021/12/27 08:17:40;;;;;;;43.10;24.00;;;;;;;4.98;100.00;99912.84;5108511;28;20751;-86
2021/12/27 08:20:06;;;;;;;41.08;23.73;;;;;;;4.97;100.00;99919.00;5091395;28;20023;-88
2021/12/27 08:22:32;;;;;;;37.10;22.15;;;;;;;4.95;100.00;99920.88;5090503;28;20038;-87
2021/12/27 08:24:57;;;;;;;40.63;24.48;;;;;;;4.96;100.00;99919.09;5090647;28;20016;-81
2021/12/27 08:27:26;;;;;;;36.60;22.40;;;;;;;4.92;100.00;99913.25;5085824;28;20050;-81
2021/12/27 08:29:51;;;;;;;37.40;22.35;;;;;;;4.96;100.00;99916.50;5107535;28;20464;-87
2021/12/27 08:32:17;;;;;;;36.10;22.08;;;;;;;4.95;100.00;99910.44;5109402;28;20128;-87
2021/12/27 08:34:43;;;;;;;34.85;21.80;;;;;;;4.96;100.00;99908.69;5090688;28;20511;-87
2021/12/27 08:37:08;;;;;;;33.35;21.45;;;;;;;4.94;100.00;99900.97;5109585;28;20042;-87
2021/12/27 08:39:34;;;;;;;30.88;20.33;;;;;;;4.95;100.00;99902.63;5109033;28;20023;-87
2021/12/27 08:42:01;;;;;;;30.98;20.65;;;;;;;4.95;100.00;99899.19;5108231;28;20020;-87
2021/12/27 08:44:27;;;;;;;30.55;19.75;;;;;;;4.93;100.00;99894.06;5105140;28;20477;-87
2021/12/27 08:46:52;;;;;;;30.02;19.85;;;;;;;4.92;100.00;99894.19;5109853;28;20035;-87
2021/12/27 08:49:18;;;;;;;31.25;20.65;;;;;;;4.91;100.00;99884.69;5109293;28;20019;-86
2021/12/27 08:51:44;;;;;;;33.28;19.83;;;;;;;4.89;100.00;99881.34;5108798;28;20029;-86
2021/12/27 08:54:09;;;;;;;30.45;19.17;;;;;;;4.88;100.00;99874.47;5090270;27;20347;-86
2021/12/27 08:56:36;;;;;;;31.55;19.98;;;;;;;4.84;100.00;99868.63;5119504;27;20054;-81
2021/12/27 08:59:02;;;;;;;30.60;19.45;;;;;;;4.86;100.00;99865.91;5090737;28;20090;-81
2021/12/27 09:01:28;;;;;;;31.98;20.30;;;;;;;4.85;100.00;99870.31;5095724;28;20020;-81
2021/12/27 09:03:53;;;;;;;29.02;19.98;;;;;;;4.83;100.00;99866.97;5109106;28;20032;-81
2021/12/27 09:06:18;;;;;;;31.95;21.05;;;;;;;4.86;100.00;99871.13;5082538;28;20031;-81
2021/12/27 09:08:44;;;;;;;34.47;20.60;;;;;;;4.83;100.00;99866.13;5108449;28;20042;-80
2021/12/27 09:11:10;;;;;;;31.30;20.42;;;;;;;4.85;100.00;99872.06;5109339;28;20431;-80
2021/12/27 09:13:38;;;;;;;31.05;20.02;;;;;;;4.82;100.00;99875.72;5094757;28;20476;-80
2021/12/27 09:16:05;;;;;;;31.60;19.65;;;;;;;4.86;100.00;99877.19;5107418;28;20476;-81
2021/12/27 09:18:32;;;;;;;29.30;19.58;;;;;;;4.86;100.00;99878.94;5107612;28;20439;-81
2021/12/27 09:20:58;;;;;;;27.27;18.90;;;;;;;4.86;100.00;99887.59;5089508;28;20031;-80
2021/12/27 09:23:23;;;;;;;27.35;18.95;;;;;;;4.85;100.00;99885.09;5112747;28;20044;-80
2021/12/27 09:25:48;;;;;;;27.65;18.15;;;;;;;4.85;100.00;99875.50;5112036;28;20027;-79
2021/12/27 09:28:15;;;;;;;26.67;18.48;;;;;;;4.87;100.00;99875.41;5094637;28;20028;-79
2021/12/27 09:30:40;;;;;;;27.33;18.35;;;;;;;4.85;100.00;99869.47;5113135;28;20516;-79
2021/12/27 09:33:06;;;;;;;28.40;17.67;;;;;;;4.87;100.00;99867.59;5113628;28;20102;-79
2021/12/27 09:35:33;;;;;;;22.83;17.63;;;;;;;4.88;100.00;99864.88;5112232;28;20028;-79
2021/12/27 09:37:58;;;;;;;25.90;17.85;;;;;;;4.85;100.00;99865.09;5094696;28;20069;-79
2021/12/27 09:40:23;;;;;;;27.45;17.58;;;;;;;4.88;100.00;99870.09;5112026;28;20027;-79
2021/12/27 09:42:50;;;;;;;24.08;17.33;;;;;;;4.89;100.00;99861.34;5094764;28;20051;-80
2021/12/27 09:45:15;;;;;;;23.83;17.83;;;;;;;4.90;100.00;99860.41;5086018;28;20093;-80
2021/12/27 09:47:42;;;;;;;25.17;18.15;;;;;;;4.92;100.00;99866.34;5093265;28;20535;-81
2021/12/27 09:50:09;;;;;;;25.83;17.95;;;;;;;4.92;100.00;99858.53;5112318;28;20020;-81
2021/12/27 09:52:36;;;;;;;25.77;16.55;;;;;;;4.97;100.00;99859.06;5112363;28;20038;-81
2021/12/27 09:55:03;;;;;;;25.70;17.10;;;;;;;4.99;100.00;99858.94;5093901;28;20032;-81
2021/12/27 09:57:31;;;;;;;24.85;17.00;;;;;;;5.01;100.00;99859.69;5094079;28;20031;-81
2021/12/27 09:59:56;;;;;;;23.48;16.58;;;;;;;5.03;100.00;99858.63;5112555;28;20102;-81
2021/12/27 10:02:24;;;;;;;27.27;16.85;;;;;;;5.06;100.00;99862.81;5094125;28;20115;-81
2021/12/27 10:04:49;;;;;;;23.42;16.23;;;;;;;5.08;100.00;99845.28;5111933;28;20073;-81
2021/12/27 10:07:23;;;;;;;23.85;16.73;;;;;;;5.10;100.00;99822.56;5104780;28;20027;-81
2021/12/27 10:09:59;;;;;;;22.77;16.00;;;;;;;5.18;100.00;99814.22;5065647;28;20024;-87
2021/12/27 10:12:26;;;;;;;23.75;16.30;;;;;;;5.12;100.00;99812.03;5109368;28;20540;-87
2021/12/27 10:14:57;;;;;;;23.98;16.73;;;;;;;5.16;100.00;99814.31;5112511;28;20034;-87
2021/12/27 10:17:23;;;;;;;20.23;15.20;;;;;;;5.18;100.00;99819.41;5092967;28;20038;-87
2021/12/27 10:19:50;;;;;;;20.98;15.10;;;;;;;5.21;100.00;99829.69;5091300;28;20020;-87
2021/12/27 10:22:16;;;;;;;20.52;15.05;;;;;;;5.25;100.00;99828.53;5107291;28;20360;-87
2021/12/27 10:24:45;;;;;;;20.30;14.85;;;;;;;5.27;100.00;99835.31;5113757;27;20111;-87
2021/12/27 10:27:12;;;;;;;22.05;15.10;;;;;;;5.26;100.00;99817.16;5106796;28;20574;-87
2021/12/27 10:29:39;;;;;;;23.00;15.32;;;;;;;5.34;100.00;99830.50;5110064;28;20028;-87
2021/12/27 10:32:10;;;;;;;22.65;15.32;;;;;;;5.37;100.00;99822.47;5097084;28;20028;-87
2021/12/27 10:34:45;;;;;;;19.38;14.90;;;;;;;5.40;100.00;99821.41;5108694;28;20024;-88
2021/12/27 10:37:17;;;;;;;21.63;14.73;;;;;;;5.45;100.00;99817.53;5093542;28;20020;-87
2021/12/27 10:39:53;;;;;;;19.45;14.68;;;;;;;5.51;100.00;99811.88;5102073;28;20423;-81
2021/12/27 10:42:27;;;;;;;21.98;14.45;;;;;;;5.52;100.00;99810.94;5093317;28;20028;-84
2021/12/27 10:44:57;;;;;;;18.63;14.30;;;;;;;5.59;100.00;99812.19;5104997;28;20035;-84
2021/12/27 10:47:26;;;;;;;18.67;14.60;;;;;;;5.64;100.00;99812.72;5082802;28;20036;-83
2021/12/27 10:49:52;;;;;;;21.13;15.10;;;;;;;5.69;100.00;99809.78;5084979;28;20024;-86
2021/12/27 10:52:17;;;;;;;19.60;13.88;;;;;;;5.75;100.00;99805.91;5099310;28;20019;-83
2021/12/27 10:54:42;;;;;;;17.80;13.30;;;;;;;5.77;100.00;99794.41;5079570;28;20024;-84
2021/12/27 10:57:08;;;;;;;18.83;13.77;;;;;;;5.82;100.00;99796.69;5095285;28;20030;-84
2021/12/27 10:59:33;;;;;;;19.27;13.40;;;;;;;5.86;100.00;99803.38;5099826;28;20452;-84
2021/12/27 11:02:10;;;;;;;19.48;13.30;;;;;;;5.90;100.00;99799.63;5101351;28;20024;-83
2021/12/27 11:04:37;;;;;;;17.70;13.18;;;;;;;5.95;100.00;99800.94;5085683;28;20429;-81
2021/12/27 11:07:06;;;;;;;19.02;13.80;;;;;;;5.98;100.00;99802.50;5085655;28;20387;-84
2021/12/27 11:09:32;;;;;;;17.88;13.13;;;;;;;6.03;100.00;99813.50;5100966;28;20426;-84
2021/12/27 11:11:58;;;;;;;19.77;13.63;;;;;;;6.07;100.00;99808.88;5099070;28;20112;-84